createdAt,value
2022-08-05T00:01:36.390Z,99732.38
2022-08-05T00:04:18.091Z,99726.13
2022-08-05T00:06:51.667Z,99712.81
2022-08-05T00:09:20.678Z,99713.69
2022-08-05T00:11:56.110Z,99708.38
2022-08-05T00:14:29.235Z,99706.59
2022-08-05T00:17:01.898Z,99705.69
2022-08-05T00:19:33.096Z,99711.00
2022-08-05T00:22:25.159Z,99710.94
2022-08-05T00:24:54.827Z,99699.44
2022-08-05T00:27:35.691Z,99706.50
2022-08-05T00:30:05.637Z,99711.81
2022-08-05T00:32:40.559Z,99710.94
2022-08-05T00:35:10.270Z,99702.94
2022-08-05T00:37:53.362Z,99701.16
2022-08-05T00:40:28.230Z,99702.94
2022-08-05T00:42:59.644Z,99704.75
2022-08-05T00:45:38.519Z,99693.31
2022-08-05T00:48:13.675Z,99694.22
2022-08-05T00:50:45.917Z,99691.59
2022-08-05T00:53:59.974Z,99694.25
2022-08-05T00:56:08.995Z,99696.06
2022-08-05T00:58:38.856Z,99694.31
2022-08-05T01:01:12.893Z,99696.09
2022-08-05T01:03:41.602Z,99698.78
2022-08-05T01:06:15.419Z,99713.81
2022-08-05T01:08:47.243Z,99708.59
2022-08-05T01:11:24.183Z,99696.25
2022-08-05T01:14:11.655Z,99689.22
2022-08-05T01:16:52.626Z,99692.78
2022-08-05T01:20:02.001Z,99700.81
2022-08-05T01:22:50.311Z,99700.88
2022-08-05T01:25:54.876Z,99695.75
2022-08-05T01:28:33.143Z,99697.56
2022-08-05T01:31:06.412Z,99710.03
2022-08-05T01:33:42.799Z,99721.59
2022-08-05T01:36:21.166Z,99717.22
2022-08-05T01:39:00.974Z,99729.63
2022-08-05T01:41:36.264Z,99724.38
2022-08-05T01:44:09.639Z,99723.50
2022-08-05T01:46:42.043Z,99735.09
2022-08-05T01:49:24.063Z,99742.31
2022-08-05T01:51:58.839Z,99759.22
2022-08-05T01:54:33.766Z,99745.22
2022-08-05T01:58:29.705Z,99732.03
2022-08-05T02:00:13.275Z,99733.88
2022-08-05T02:02:53.649Z,99726.81
2022-08-05T02:05:29.095Z,99736.56
2022-08-05T02:08:01.735Z,99738.31
2022-08-05T02:10:37.860Z,99749.88
2022-08-05T02:13:16.558Z,99747.31
2022-08-05T02:15:51.901Z,99741.28
2022-08-05T02:18:28.726Z,99748.44
2022-08-05T02:21:14.929Z,99754.72
2022-08-05T02:23:46.607Z,99761.03
2022-08-05T02:26:26.631Z,99776.13
2022-08-05T02:28:58.358Z,99785.88
2022-08-05T02:31:34.879Z,99789.47
2022-08-05T02:34:09.978Z,99799.25
2022-08-05T02:36:45.313Z,99809.03
2022-08-05T02:39:21.508Z,99814.38
2022-08-05T02:42:00.542Z,99822.41
2022-08-05T02:44:32.200Z,99818.09
2022-08-05T02:47:04.346Z,99818.19
2022-08-05T02:49:40.525Z,99819.13
2022-08-05T02:52:13.623Z,99820.09
2022-08-05T02:55:02.034Z,99801.63
2022-08-05T02:58:11.822Z,99797.25
2022-08-05T03:00:25.379Z,99810.53
2022-08-05T03:02:59.720Z,99819.41
2022-08-05T03:06:56.651Z,99819.41
2022-08-05T03:08:19.538Z,99826.47
2022-08-05T03:11:53.058Z,99825.69
2022-08-05T03:13:52.223Z,99840.66
2022-08-05T03:16:31.838Z,99839.78
2022-08-05T03:19:12.535Z,99838.88
2022-08-05T03:21:48.751Z,99831.81
2022-08-05T03:24:30.187Z,99826.47
2022-08-05T03:26:59.801Z,99844.91
2022-08-05T03:29:44.729Z,99844.88
2022-08-05T03:32:19.467Z,99839.53
2022-08-05T03:34:51.178Z,99836.81
2022-08-05T03:37:22.750Z,99808.53
2022-08-05T03:39:58.756Z,99787.31
2022-08-05T03:42:32.005Z,99741.44
2022-08-05T03:45:01.911Z,99716.72
2022-08-05T03:47:49.757Z,99714.09
2022-08-05T03:50:19.677Z,99703.50
2022-08-05T03:55:50.982Z,99672.72
2022-08-05T03:56:11.487Z,99672.94
2022-08-05T03:58:48.354Z,99667.75
2022-08-05T04:01:22.490Z,99665.13
2022-08-05T04:04:05.395Z,99680.16
2022-08-05T04:06:47.464Z,99697.75
2022-08-05T04:09:20.340Z,99717.13
2022-08-05T04:11:56.714Z,99721.47
2022-08-05T04:14:30.601Z,99735.59
2022-08-05T04:17:02.942Z,99739.09
2022-08-05T04:19:32.062Z,99739.97
2022-08-05T04:22:09.159Z,99762.00
2022-08-05T04:24:44.034Z,99762.00
2022-08-05T04:27:15.287Z,99767.28
2022-08-05T04:29:44.020Z,99776.06
2022-08-05T04:32:13.918Z,99774.28
2022-08-05T04:34:48.611Z,99778.69
2022-08-05T04:37:18.453Z,99776.94
2022-08-05T04:39:52.592Z,99770.75
2022-08-05T04:42:25.363Z,99765.50
2022-08-05T04:44:54.341Z,99762.91
2022-08-05T04:47:23.146Z,99767.31
2022-08-05T04:50:01.422Z,99769.97
2022-08-05T04:52:34.352Z,99764.69
2022-08-05T04:55:14.716Z,99777.09
2022-08-05T04:57:54.129Z,99778.91
2022-08-05T05:00:23.437Z,99785.16
2022-08-05T05:02:53.157Z,99793.13
2022-08-05T05:05:28.335Z,99807.34
2022-08-05T05:08:03.638Z,99798.59
2022-08-05T05:10:35.357Z,99788.09
2022-08-05T05:13:04.561Z,99774.03
2022-08-05T05:15:57.545Z,99769.69
2022-08-05T05:18:31.179Z,99791.81
2022-08-05T05:21:03.883Z,99786.56
2022-08-05T05:24:01.790Z,99790.97
2022-08-05T05:26:28.583Z,99796.31
2022-08-05T05:29:02.589Z,99788.41
2022-08-05T05:34:06.188Z,99787.53
2022-08-05T05:36:37.298Z,99792.78
2022-08-05T05:39:09.352Z,99791.94
2022-08-05T05:41:40.434Z,99791.06
2022-08-05T05:44:35.589Z,99790.19
2022-08-05T05:47:04.361Z,99785.81
2022-08-05T05:49:42.115Z,99776.09
2022-08-05T05:52:13.071Z,99790.19
2022-08-05T05:55:01.820Z,99785.78
2022-08-05T05:57:42.823Z,99779.66
2022-08-05T06:00:31.424Z,99789.34
2022-08-05T06:03:02.055Z,99795.50
2022-08-05T06:05:31.921Z,99802.50
2022-08-05T06:08:01.973Z,99790.19
2022-08-05T06:10:37.471Z,99779.59
2022-08-05T06:13:21.428Z,99798.97
2022-08-05T06:16:28.691Z,99819.22
2022-08-05T06:18:40.713Z,99827.13
2022-08-05T06:21:18.618Z,99813.91
2022-08-05T06:23:49.880Z,99790.13
2022-08-05T06:26:20.922Z,99805.94
2022-08-05T06:28:50.306Z,99804.19
2022-08-05T06:31:22.377Z,99794.53
2022-08-05T06:34:07.550Z,99810.38
2022-08-05T06:36:56.755Z,99826.22
2022-08-05T06:39:27.997Z,99837.69
2022-08-05T06:42:01.320Z,99841.22
2022-08-05T06:44:33.063Z,99828.03
2022-08-05T06:47:02.292Z,99819.25
2022-08-05T06:50:00.863Z,99824.56
2022-08-05T06:52:37.174Z,99843.03
2022-08-05T06:55:07.890Z,99845.72
2022-08-05T06:58:03.713Z,99851.91
2022-08-05T07:00:26.437Z,99870.41
2022-08-05T07:02:58.693Z,99882.75
2022-08-05T07:05:36.878Z,99881.91
2022-08-05T07:08:10.839Z,99876.66
2022-08-05T07:10:53.484Z,99871.41
2022-08-05T07:13:59.825Z,99877.56
2022-08-05T07:18:02.350Z,99867.09
2022-08-05T07:22:28.249Z,99876.81
2022-08-05T07:25:22.752Z,99887.38
2022-08-05T07:27:58.469Z,99881.25
2022-08-05T07:30:38.171Z,99897.09
2022-08-05T07:33:16.865Z,99897.06
2022-08-05T07:36:03.089Z,99909.38
2022-08-05T07:38:43.329Z,99906.75
2022-08-05T07:42:08.969Z,99915.53
2022-08-05T07:44:18.660Z,99920.81
2022-08-05T07:46:50.423Z,99916.38
2022-08-05T07:49:20.490Z,99910.25
2022-08-05T07:51:53.653Z,99914.63
2022-08-05T07:54:31.287Z,99913.75
2022-08-05T07:57:16.904Z,99921.66
2022-08-05T07:59:51.660Z,99913.75
2022-08-05T08:02:31.261Z,99916.41
2022-08-05T08:05:15.368Z,99926.06
2022-08-05T08:08:00.188Z,99931.31
2022-08-05T08:10:30.327Z,99927.81
2022-08-05T08:12:59.523Z,99935.72
2022-08-05T08:16:33.634Z,99946.25
2022-08-05T08:18:21.296Z,99953.28
2022-08-05T08:21:03.095Z,99966.47
2022-08-05T08:24:01.328Z,99977.88
2022-08-05T08:26:29.797Z,99986.69
2022-08-05T08:29:09.681Z,99977.00
2022-08-05T08:31:49.374Z,99972.59
2022-08-05T08:34:30.831Z,99980.50
2022-08-05T08:37:04.572Z,99984.88
2022-08-05T08:39:37.658Z,99987.53
2022-08-05T08:42:15.224Z,100001.59
2022-08-05T08:45:19.194Z,100004.22
2022-08-05T08:48:06.745Z,100010.38
2022-08-05T08:51:03.455Z,100018.28
2022-08-05T08:53:37.109Z,100022.66
2022-08-05T08:56:07.067Z,100031.44
2022-08-05T08:58:43.548Z,100034.97
2022-08-05T09:01:18.514Z,100027.91
2022-08-05T09:03:54.295Z,100031.41
2022-08-05T09:06:30.182Z,100032.28
2022-08-05T09:09:01.789Z,100027.88
2022-08-05T09:11:52.037Z,100037.53
2022-08-05T09:14:56.649Z,100037.50
2022-08-05T09:17:16.191Z,100041.84
2022-08-05T09:20:05.444Z,100049.72
2022-08-05T09:23:19.792Z,100047.03
2022-08-05T09:26:01.995Z,100063.69
2022-08-05T09:28:35.129Z,100063.72
2022-08-05T09:31:22.199Z,100069.88
2022-08-05T09:33:58.607Z,100069.91
2022-08-05T09:36:54.351Z,100071.66
2022-08-05T09:39:41.148Z,100068.22
2022-08-05T09:42:24.102Z,100074.41
2022-08-05T09:45:17.230Z,100069.16
2022-08-05T09:47:56.109Z,100070.94
2022-08-05T09:50:38.174Z,100076.22
2022-08-05T09:53:23.140Z,100078.84
2022-08-05T09:56:04.699Z,100084.97
2022-08-05T09:58:41.922Z,100082.34
2022-08-05T10:01:22.584Z,100090.28
2022-08-05T10:04:10.229Z,100091.16
2022-08-05T10:06:41.602Z,100099.06
2022-08-05T10:09:28.350Z,100099.97
2022-08-05T10:12:30.306Z,100104.34
2022-08-05T10:15:21.736Z,100115.72
2022-08-05T10:18:22.525Z,100117.47
2022-08-05T10:20:55.358Z,100117.53
2022-08-05T10:23:55.159Z,100117.53
2022-08-05T10:26:16.071Z,100137.72
2022-08-05T10:28:48.003Z,100129.84
2022-08-05T10:32:51.847Z,100125.44
2022-08-05T10:34:08.425Z,100140.34
2022-08-05T10:36:39.300Z,100145.66
2022-08-05T10:39:24.301Z,100150.91
2022-08-05T10:42:02.390Z,100153.56
2022-08-05T10:44:35.780Z,100148.31
2022-08-05T10:47:25.974Z,100157.09
2022-08-05T10:50:20.843Z,100159.72
2022-08-05T10:52:58.677Z,100164.97
2022-08-05T10:55:28.629Z,100164.94
2022-08-05T10:58:11.697Z,100174.63
2022-08-05T11:00:55.370Z,100182.53
2022-08-05T11:03:31.949Z,100175.50
2022-08-05T11:06:15.631Z,100174.59
2022-08-05T11:09:16.622Z,100186.00
2022-08-05T11:11:52.519Z,100193.03
2022-08-05T11:14:56.312Z,100192.16
2022-08-05T11:18:00.250Z,100202.72
2022-08-05T11:20:45.249Z,100193.06
2022-08-05T11:24:02.644Z,100196.59
2022-08-05T11:26:28.171Z,100200.13
2022-08-05T11:29:11.358Z,100203.63
2022-08-05T11:31:56.361Z,100208.94
2022-08-05T11:34:52.242Z,100205.41
2022-08-05T11:38:29.527Z,100208.97
2022-08-05T11:41:12.943Z,100211.59
2022-08-05T11:44:05.706Z,100201.94
2022-08-05T11:47:09.819Z,100205.47
2022-08-05T11:49:27.732Z,100209.00
2022-08-05T11:51:57.886Z,100209.09
2022-08-05T11:54:33.214Z,100202.94
2022-08-05T11:57:08.607Z,100209.13
2022-08-05T11:59:53.398Z,100207.41
2022-08-05T12:02:31.975Z,100203.91
2022-08-05T12:05:07.146Z,100210.09
2022-08-05T12:08:09.138Z,100203.06
2022-08-05T12:10:43.793Z,100209.22
2022-08-05T12:13:27.946Z,100207.53
2022-08-05T12:16:14.469Z,100212.78
2022-08-05T12:18:52.696Z,100202.25
2022-08-05T12:21:26.665Z,100207.50
2022-08-05T12:24:06.933Z,100205.72
2022-08-05T12:26:38.730Z,100212.81
2022-08-05T12:29:09.612Z,100217.19
2022-08-05T12:31:49.772Z,100221.59
2022-08-05T12:34:28.558Z,100217.22
2022-08-05T12:36:59.319Z,100225.13
2022-08-05T12:39:37.195Z,100226.91
2022-08-05T12:42:14.971Z,100224.25
2022-08-05T12:44:45.871Z,100230.44
2022-08-05T12:47:28.636Z,100232.19
2022-08-05T12:50:04.098Z,100233.97
2022-08-05T12:52:39.530Z,100228.69
2022-08-05T12:55:25.546Z,100234.84
2022-08-05T12:58:50.017Z,100249.81
2022-08-05T13:02:02.757Z,100245.41
2022-08-05T13:03:38.875Z,100249.81
2022-08-05T13:06:10.470Z,100249.81
2022-08-05T13:08:40.863Z,100247.19
2022-08-05T13:11:25.362Z,100250.72
2022-08-05T13:14:24.827Z,100257.75
2022-08-05T13:17:10.513Z,100259.56
2022-08-05T13:19:40.331Z,100258.66
2022-08-05T13:22:28.275Z,100264.84
2022-08-05T13:25:05.231Z,100267.47
2022-08-05T13:27:39.342Z,100264.78
2022-08-05T13:30:34.712Z,100274.47
2022-08-05T13:33:01.310Z,100272.72
2022-08-05T13:35:31.262Z,100290.28
2022-08-05T13:38:28.172Z,100284.13
2022-08-05T13:41:00.580Z,100285.91
2022-08-05T13:43:45.304Z,100293.84
2022-08-05T13:46:30.764Z,100272.69
2022-08-05T13:49:10.468Z,100278.00
2022-08-05T13:51:45.871Z,100283.31
2022-08-05T13:54:21.185Z,100290.34
2022-08-05T13:56:54.657Z,100289.47
2022-08-05T13:59:27.020Z,100294.78
2022-08-05T14:01:58.845Z,100292.13
2022-08-05T14:04:50.462Z,100288.59
2022-08-05T14:07:25.476Z,100296.50
2022-08-05T14:10:12.507Z,100307.09
2022-08-05T14:12:42.928Z,100301.81
2022-08-05T14:16:07.405Z,100307.09
2022-08-05T14:18:15.142Z,100307.97
2022-08-05T14:20:48.326Z,100324.69
2022-08-05T14:23:24.620Z,100319.41
2022-08-05T14:25:57.824Z,100324.66
2022-08-05T14:28:28.392Z,100329.06
2022-08-05T14:30:59.093Z,100318.47
2022-08-05T14:33:27.702Z,100332.56
2022-08-05T14:36:20.493Z,100326.38
2022-08-05T14:38:50.835Z,100332.53
2022-08-05T14:41:19.547Z,100333.41
2022-08-05T14:44:02.245Z,100332.53
2022-08-05T14:46:36.004Z,100328.13
2022-08-05T14:49:08.134Z,100334.31
2022-08-05T14:51:38.368Z,100322.00
2022-08-05T14:54:28.544Z,100322.00
2022-08-05T14:56:56.885Z,100316.72
2022-08-05T14:59:29.803Z,100329.03
2022-08-05T15:02:15.727Z,100329.03
2022-08-05T15:04:47.612Z,100334.31
2022-08-05T15:08:05.565Z,100332.56
2022-08-05T15:10:09.899Z,100330.78
2022-08-05T15:12:58.008Z,100339.63
2022-08-05T15:15:54.160Z,100331.72
2022-08-05T15:18:18.429Z,100336.13
2022-08-05T15:20:47.111Z,100337.03
2022-08-05T15:23:16.773Z,100322.94
2022-08-05T15:25:52.302Z,100334.38
2022-08-05T15:28:27.073Z,100336.13
2022-08-05T15:30:57.069Z,100330.88
2022-08-05T15:34:19.555Z,100317.66
2022-08-05T15:36:17.329Z,100333.50
2022-08-05T15:40:41.128Z,100323.81
2022-08-05T15:41:55.654Z,100318.53
2022-08-05T15:44:25.828Z,100318.56
2022-08-05T15:46:56.247Z,100322.06
2022-08-05T15:49:55.200Z,100324.72
2022-08-05T15:52:29.308Z,100329.09
2022-08-05T15:55:05.667Z,100340.56
2022-08-05T15:57:36.563Z,100336.16
2022-08-05T16:00:07.570Z,100335.28
2022-08-05T16:02:36.146Z,100343.16
2022-08-05T16:05:09.553Z,100341.38
2022-08-05T16:07:38.473Z,100349.28
2022-08-05T16:10:15.399Z,100345.75
2022-08-05T16:12:46.407Z,100354.53
2022-08-05T16:15:18.614Z,100349.25
2022-08-05T16:17:57.975Z,100349.25
2022-08-05T16:20:28.331Z,100356.25
2022-08-05T16:22:57.471Z,100358.88
2022-08-05T16:25:32.244Z,100357.13
2022-08-05T16:28:06.126Z,100353.59
2022-08-05T16:30:36.182Z,100358.00
2022-08-05T16:33:05.356Z,100359.75
2022-08-05T16:35:42.271Z,100372.06
2022-08-05T16:38:24.421Z,100377.31
2022-08-05T16:41:00.476Z,100381.75
2022-08-05T16:43:32.702Z,100381.75
2022-08-05T16:46:24.017Z,100380.88
2022-08-05T16:48:53.631Z,100380.88
2022-08-05T16:51:31.049Z,100387.91
2022-08-05T16:54:17.082Z,100389.66
2022-08-05T16:56:47.777Z,100394.06
2022-08-05T16:59:20.783Z,100392.31
2022-08-05T17:01:54.477Z,100389.69
2022-08-05T17:04:27.131Z,100395.84
2022-08-05T17:07:01.140Z,100397.59
2022-08-05T17:09:57.578Z,100402.88
2022-08-05T17:12:22.769Z,100404.63
2022-08-05T17:15:09.864Z,100408.13
2022-08-05T17:17:44.382Z,100413.41
2022-08-05T17:20:14.601Z,100415.19
2022-08-05T17:22:46.336Z,100418.69
2022-08-05T17:25:40.198Z,100427.47
2022-08-05T17:28:09.969Z,100426.63
2022-08-05T17:30:50.615Z,100425.75
2022-08-05T17:33:21.043Z,100429.25
2022-08-05T17:36:07.276Z,100430.13
2022-08-05T17:38:39.842Z,100432.78
2022-08-05T17:41:22.760Z,100443.31
2022-08-05T17:43:58.140Z,100442.47
2022-08-05T17:46:27.517Z,100441.56
2022-08-05T17:48:56.096Z,100438.91
2022-08-05T17:51:26.545Z,100445.94
2022-08-05T17:53:56.720Z,100446.81
2022-08-05T17:56:28.301Z,100446.81
2022-08-05T17:58:57.138Z,100462.63
2022-08-05T18:01:25.999Z,100463.53
2022-08-05T18:04:03.899Z,100463.50
2022-08-05T18:06:34.458Z,100467.91
2022-08-05T18:09:04.463Z,100471.41
2022-08-05T18:11:38.094Z,100474.00
2022-08-05T18:14:07.629Z,100479.25
2022-08-05T18:16:46.747Z,100483.63
2022-08-05T18:19:22.668Z,100486.22
2022-08-05T18:22:07.617Z,100506.44
2022-08-05T18:24:40.231Z,100500.25
2022-08-05T18:27:18.599Z,100512.56
2022-08-05T18:29:53.584Z,100509.03
2022-08-05T18:32:28.231Z,100509.88
2022-08-05T18:34:58.120Z,100509.84
2022-08-05T18:37:34.291Z,100515.13
2022-08-05T18:41:49.959Z,100526.53
2022-08-05T18:43:00.620Z,100519.50
2022-08-05T18:45:41.417Z,100525.63
2022-08-05T18:48:12.014Z,100536.16
2022-08-05T18:52:03.288Z,100529.16
2022-08-05T18:53:52.270Z,100532.59
2022-08-05T18:56:25.260Z,100535.28
2022-08-05T18:58:59.793Z,100536.16
2022-08-05T19:01:47.798Z,100535.25
2022-08-05T19:04:24.386Z,100537.00
2022-08-05T19:06:53.962Z,100543.13
2022-08-05T19:09:23.248Z,100542.22
2022-08-05T19:12:01.022Z,100549.28
2022-08-05T19:14:53.251Z,100555.41
2022-08-05T19:17:19.544Z,100554.53
2022-08-05T19:19:50.791Z,100551.91
2022-08-05T19:22:27.505Z,100557.19
2022-08-05T19:25:00.719Z,100567.69
2022-08-05T19:27:32.481Z,100569.41
2022-08-05T19:30:02.937Z,100564.13
2022-08-05T19:32:33.152Z,100563.19
2022-08-05T19:35:06.381Z,100571.94
2022-08-05T19:38:04.264Z,100577.19
2022-08-05T19:40:24.493Z,100573.69
2022-08-05T19:43:00.958Z,100585.09
2022-08-05T19:45:37.022Z,100594.75
2022-08-05T19:48:07.227Z,100592.94
2022-08-05T19:50:43.620Z,100594.69
2022-08-05T19:53:12.277Z,100603.44
2022-08-05T19:56:14.992Z,100609.59
2022-08-05T19:58:31.115Z,100616.56
2022-08-05T20:01:28.171Z,100615.66
2022-08-05T20:03:57.752Z,100636.75
2022-08-05T20:06:28.679Z,100637.63
2022-08-05T20:09:00.868Z,100640.25
2022-08-05T20:11:42.208Z,100649.94
2022-08-05T20:14:26.784Z,100650.81
2022-08-05T20:16:55.932Z,100663.09
2022-08-05T20:19:25.282Z,100649.88
2022-08-05T20:22:06.769Z,100657.78
2022-08-05T20:24:38.303Z,100672.75
2022-08-05T20:27:11.391Z,100673.63
2022-08-05T20:29:41.948Z,100669.25
2022-08-05T20:32:27.807Z,100677.16
2022-08-05T20:34:56.855Z,100679.78
2022-08-05T20:38:06.385Z,100673.59
2022-08-05T20:40:15.194Z,100686.78
2022-08-05T20:42:46.925Z,100686.75
2022-08-05T20:45:18.122Z,100689.41
2022-08-05T20:47:49.735Z,100688.47
2022-08-05T20:50:20.580Z,100688.41
2022-08-05T20:52:51.628Z,100699.78
2022-08-05T20:56:07.263Z,100691.78
2022-08-05T20:58:09.933Z,100703.13
2022-08-05T21:00:52.393Z,100706.59
2022-08-05T21:03:23.599Z,100713.53
2022-08-05T21:05:55.599Z,100710.81
2022-08-05T21:08:41.272Z,100709.03
2022-08-05T21:11:11.793Z,100713.34
2022-08-05T21:13:47.601Z,100711.56
2022-08-05T21:16:30.459Z,100715.94
2022-08-05T21:19:01.197Z,100710.66
2022-08-05T21:21:39.145Z,100708.91
2022-08-05T21:24:13.490Z,100717.66
2022-08-05T21:26:53.373Z,100713.25
2022-08-05T21:29:31.850Z,100720.19
2022-08-05T21:32:03.421Z,100725.47
2022-08-05T21:34:33.061Z,100725.44
2022-08-05T21:37:04.896Z,100728.03
2022-08-05T21:39:34.542Z,100729.78
2022-08-05T21:42:07.517Z,100733.28
2022-08-05T21:44:56.019Z,100733.31
2022-08-05T21:47:55.941Z,100728.91
2022-08-05T21:50:15.946Z,100733.25
2022-08-05T21:52:47.156Z,100741.16
2022-08-05T21:55:17.225Z,100743.78
2022-08-05T21:57:46.497Z,100740.28
2022-08-05T22:00:16.292Z,100750.72
2022-08-05T22:02:46.727Z,100747.06
2022-08-05T22:05:15.264Z,100757.47
2022-08-05T22:07:58.924Z,100757.38
2022-08-05T22:10:29.048Z,100750.22
2022-08-05T22:14:05.061Z,100751.84
2022-08-05T22:16:01.027Z,100757.91
2022-08-05T22:18:39.031Z,100758.75
2022-08-05T22:21:18.781Z,100767.44
2022-08-05T22:24:08.841Z,100768.28
2022-08-05T22:26:59.933Z,100769.91
2022-08-05T22:29:32.855Z,100779.41
2022-08-05T22:32:02.775Z,100775.84
2022-08-05T22:34:34.244Z,100773.25
2022-08-05T22:37:05.292Z,100772.38
2022-08-05T22:39:35.039Z,100767.91
2022-08-05T22:42:12.287Z,100773.19
2022-08-05T22:44:53.679Z,100779.34
2022-08-05T22:47:29.148Z,100782.88
2022-08-05T22:50:20.748Z,100789.94
2022-08-05T22:52:52.438Z,100798.72
2022-08-05T22:55:22.800Z,100795.22
2022-08-05T22:57:53.199Z,100793.50
2022-08-05T23:00:23.653Z,100800.56
2022-08-05T23:02:53.657Z,100803.19
2022-08-05T23:05:25.069Z,100812.88
2022-08-05T23:07:53.969Z,100803.25
2022-08-05T23:10:24.477Z,100810.31
2022-08-05T23:12:55.720Z,100810.31
2022-08-05T23:15:28.967Z,100811.25
2022-08-05T23:18:01.926Z,100811.25
2022-08-05T23:20:37.410Z,100808.59
2022-08-05T23:23:08.430Z,100814.75
2022-08-05T23:25:52.395Z,100814.75
2022-08-05T23:28:28.676Z,100816.44
2022-08-05T23:31:16.151Z,100826.06
2022-08-05T23:34:04.030Z,100832.19
2022-08-05T23:36:39.856Z,100846.19
2022-08-05T23:39:16.375Z,100839.16
2022-08-05T23:41:52.713Z,100844.38
2022-08-05T23:44:27.989Z,100846.06
2022-08-05T23:47:02.579Z,100847.81
2022-08-05T23:49:45.672Z,100847.81
2022-08-05T23:52:30.532Z,100847.75
2022-08-05T23:55:06.954Z,100852.94
2022-08-05T23:57:37.633Z,100845.91
